sensor_id;sensor_type;location;lat;lon;timestamp;P1;durP1;ratioP1;P2;durP2;ratioP2
11675;SDS011;5894;42.768;23.404;2023-02-02T00:00:55;7.07;;;3.60;;
11675;SDS011;5894;42.768;23.404;2023-02-02T00:03:23;7.83;;;4.00;;
11675;SDS011;5894;42.768;23.404;2023-02-02T00:05:52;8.93;;;4.23;;
11675;SDS011;5894;42.768;23.404;2023-02-02T00:08:19;7.03;;;4.20;;
11675;SDS011;5894;42.768;23.404;2023-02-02T00:10:47;7.07;;;3.57;;
11675;SDS011;5894;42.768;23.404;2023-02-02T00:13:14;6.13;;;3.30;;
11675;SDS011;5894;42.768;23.404;2023-02-02T00:15:42;7.20;;;3.60;;
11675;SDS011;5894;42.768;23.404;2023-02-02T00:18:10;9.17;;;4.80;;
11675;SDS011;5894;42.768;23.404;2023-02-02T00:20:39;8.90;;;4.70;;
11675;SDS011;5894;42.768;23.404;2023-02-02T00:23:06;7.57;;;4.07;;
11675;SDS011;5894;42.768;23.404;2023-02-02T00:25:33;5.40;;;3.40;;
11675;SDS011;5894;42.768;23.404;2023-02-02T00:28:01;5.87;;;3.33;;
11675;SDS011;5894;42.768;23.404;2023-02-02T00:30:28;5.47;;;3.30;;
11675;SDS011;5894;42.768;23.404;2023-02-02T00:32:55;6.93;;;3.80;;
11675;SDS011;5894;42.768;23.404;2023-02-02T00:35:22;8.07;;;3.80;;
11675;SDS011;5894;42.768;23.404;2023-02-02T00:37:51;5.90;;;3.27;;
11675;SDS011;5894;42.768;23.404;2023-02-02T00:40:19;4.83;;;3.27;;
11675;SDS011;5894;42.768;23.404;2023-02-02T00:42:46;6.03;;;3.50;;
11675;SDS011;5894;42.768;23.404;2023-02-02T00:45:14;6.03;;;3.80;;
11675;SDS011;5894;42.768;23.404;2023-02-02T00:47:42;5.07;;;3.40;;
11675;SDS011;5894;42.768;23.404;2023-02-02T00:50:10;5.83;;;3.40;;
11675;SDS011;5894;42.768;23.404;2023-02-02T00:52:38;6.23;;;3.00;;
11675;SDS011;5894;42.768;23.404;2023-02-02T00:55:07;4.70;;;2.60;;
11675;SDS011;5894;42.768;23.404;2023-02-02T00:57:35;4.57;;;2.60;;
11675;SDS011;5894;42.768;23.404;2023-02-02T01:00:03;7.30;;;2.70;;
11675;SDS011;5894;42.768;23.404;2023-02-02T01:02:31;5.80;;;3.17;;
11675;SDS011;5894;42.768;23.404;2023-02-02T01:05:01;10.53;;;4.80;;
11675;SDS011;5894;42.768;23.404;2023-02-02T01:07:31;10.17;;;4.60;;
11675;SDS011;5894;42.768;23.404;2023-02-02T01:09:58;9.60;;;5.23;;
11675;SDS011;5894;42.768;23.404;2023-02-02T01:12:26;9.73;;;5.13;;
11675;SDS011;5894;42.768;23.404;2023-02-02T01:14:55;9.73;;;4.47;;
11675;SDS011;5894;42.768;23.404;2023-02-02T01:17:22;7.00;;;4.20;;
11675;SDS011;5894;42.768;23.404;2023-02-02T01:19:48;6.27;;;3.73;;
11675;SDS011;5894;42.768;23.404;2023-02-02T01:22:16;4.43;;;2.90;;
11675;SDS011;5894;42.768;23.404;2023-02-02T01:24:43;3.47;;;2.67;;
11675;SDS011;5894;42.768;23.404;2023-02-02T01:27:10;4.30;;;2.90;;
11675;SDS011;5894;42.768;23.404;2023-02-02T01:29:38;4.37;;;2.80;;
11675;SDS011;5894;42.768;23.404;2023-02-02T01:32:05;4.13;;;2.73;;
11675;SDS011;5894;42.768;23.404;2023-02-02T01:34:32;5.77;;;2.90;;
11675;SDS011;5894;42.768;23.404;2023-02-02T01:36:58;3.97;;;2.67;;
11675;SDS011;5894;42.768;23.404;2023-02-02T01:39:25;3.40;;;3.00;;
11675;SDS011;5894;42.768;23.404;2023-02-02T01:41:52;4.93;;;3.00;;
11675;SDS011;5894;42.768;23.404;2023-02-02T01:47:26;4.13;;;3.07;;
11675;SDS011;5894;42.768;23.404;2023-02-02T01:49:56;4.60;;;3.00;;
11675;SDS011;5894;42.768;23.404;2023-02-02T01:52:24;4.83;;;3.00;;
11675;SDS011;5894;42.768;23.404;2023-02-02T01:54:55;3.40;;;2.93;;
11675;SDS011;5894;42.768;23.404;2023-02-02T01:57:30;5.03;;;3.20;;
11675;SDS011;5894;42.768;23.404;2023-02-02T02:00:09;4.20;;;2.97;;
11675;SDS011;5894;42.768;23.404;2023-02-02T02:02:43;6.33;;;3.73;;
11675;SDS011;5894;42.768;23.404;2023-02-02T02:05:18;8.00;;;4.00;;
11675;SDS011;5894;42.768;23.404;2023-02-02T02:07:50;6.63;;;4.03;;
11675;SDS011;5894;42.768;23.404;2023-02-02T02:10:19;6.70;;;4.03;;
11675;SDS011;5894;42.768;23.404;2023-02-02T02:12:46;7.77;;;4.07;;
11675;SDS011;5894;42.768;23.404;2023-02-02T02:15:14;6.63;;;3.77;;
11675;SDS011;5894;42.768;23.404;2023-02-02T02:18:03;6.77;;;3.10;;
11675;SDS011;5894;42.768;23.404;2023-02-02T02:20:46;4.23;;;2.90;;
11675;SDS011;5894;42.768;23.404;2023-02-02T02:27:36;4.27;;;2.90;;
11675;SDS011;5894;42.768;23.404;2023-02-02T02:30:30;4.33;;;2.90;;
11675;SDS011;5894;42.768;23.404;2023-02-02T02:33:08;9.33;;;5.13;;
11675;SDS011;5894;42.768;23.404;2023-02-02T02:35:39;6.43;;;3.67;;
11675;SDS011;5894;42.768;23.404;2023-02-02T02:38:15;7.00;;;3.53;;
11675;SDS011;5894;42.768;23.404;2023-02-02T02:40:50;4.63;;;3.30;;
11675;SDS011;5894;42.768;23.404;2023-02-02T02:43:22;5.80;;;3.80;;
11675;SDS011;5894;42.768;23.404;2023-02-02T02:45:54;5.77;;;3.50;;
11675;SDS011;5894;42.768;23.404;2023-02-02T02:48:22;8.60;;;4.13;;
11675;SDS011;5894;42.768;23.404;2023-02-02T02:50:49;6.70;;;4.20;;
11675;SDS011;5894;42.768;23.404;2023-02-02T02:53:17;6.67;;;3.80;;
11675;SDS011;5894;42.768;23.404;2023-02-02T02:55:55;6.13;;;3.70;;
11675;SDS011;5894;42.768;23.404;2023-02-02T02:58:32;5.80;;;3.40;;
11675;SDS011;5894;42.768;23.404;2023-02-02T03:01:08;6.77;;;3.77;;
11675;SDS011;5894;42.768;23.404;2023-02-02T03:03:45;7.33;;;3.87;;
11675;SDS011;5894;42.768;23.404;2023-02-02T03:06:26;7.60;;;4.80;;
11675;SDS011;5894;42.768;23.404;2023-02-02T03:09:01;8.27;;;4.93;;
11675;SDS011;5894;42.768;23.404;2023-02-02T03:11:31;11.50;;;6.73;;
11675;SDS011;5894;42.768;23.404;2023-02-02T03:14:00;9.03;;;6.27;;
11675;SDS011;5894;42.768;23.404;2023-02-02T03:16:28;9.50;;;6.30;;
11675;SDS011;5894;42.768;23.404;2023-02-02T03:18:57;7.07;;;5.10;;
11675;SDS011;5894;42.768;23.404;2023-02-02T03:21:24;8.13;;;4.47;;
11675;SDS011;5894;42.768;23.404;2023-02-02T03:23:51;8.00;;;4.60;;
11675;SDS011;5894;42.768;23.404;2023-02-02T03:26:18;9.80;;;5.00;;
11675;SDS011;5894;42.768;23.404;2023-02-02T03:28:45;8.97;;;5.40;;
11675;SDS011;5894;42.768;23.404;2023-02-02T03:31:12;9.93;;;6.83;;
11675;SDS011;5894;42.768;23.404;2023-02-02T03:33:40;8.07;;;4.67;;
11675;SDS011;5894;42.768;23.404;2023-02-02T03:36:09;10.37;;;4.77;;
11675;SDS011;5894;42.768;23.404;2023-02-02T03:38:37;10.70;;;5.20;;
11675;SDS011;5894;42.768;23.404;2023-02-02T03:41:05;12.07;;;5.13;;
11675;SDS011;5894;42.768;23.404;2023-02-02T03:43:31;16.90;;;9.07;;
11675;SDS011;5894;42.768;23.404;2023-02-02T03:45:59;13.17;;;6.70;;
11675;SDS011;5894;42.768;23.404;2023-02-02T03:48:28;7.50;;;4.70;;
11675;SDS011;5894;42.768;23.404;2023-02-02T03:50:57;6.70;;;3.60;;
11675;SDS011;5894;42.768;23.404;2023-02-02T03:53:27;6.43;;;3.93;;
11675;SDS011;5894;42.768;23.404;2023-02-02T03:55:53;5.47;;;4.03;;
11675;SDS011;5894;42.768;23.404;2023-02-02T03:58:20;5.60;;;3.67;;
11675;SDS011;5894;42.768;23.404;2023-02-02T04:00:47;4.60;;;3.10;;
11675;SDS011;5894;42.768;23.404;2023-02-02T04:03:14;6.00;;;3.87;;
11675;SDS011;5894;42.768;23.404;2023-02-02T04:05:40;6.30;;;4.07;;
11675;SDS011;5894;42.768;23.404;2023-02-02T04:08:07;5.80;;;3.80;;
11675;SDS011;5894;42.768;23.404;2023-02-02T04:10:35;8.10;;;4.97;;
11675;SDS011;5894;42.768;23.404;2023-02-02T04:13:03;8.13;;;4.60;;
11675;SDS011;5894;42.768;23.404;2023-02-02T04:15:30;6.57;;;4.53;;
11675;SDS011;5894;42.768;23.404;2023-02-02T04:17:57;11.47;;;5.70;;
11675;SDS011;5894;42.768;23.404;2023-02-02T04:20:24;12.70;;;7.17;;
11675;SDS011;5894;42.768;23.404;2023-02-02T04:22:50;12.77;;;7.50;;
11675;SDS011;5894;42.768;23.404;2023-02-02T04:25:19;10.60;;;5.50;;
11675;SDS011;5894;42.768;23.404;2023-02-02T04:27:47;7.07;;;4.07;;
11675;SDS011;5894;42.768;23.404;2023-02-02T04:30:14;6.97;;;4.00;;
11675;SDS011;5894;42.768;23.404;2023-02-02T04:32:41;6.60;;;3.90;;
11675;SDS011;5894;42.768;23.404;2023-02-02T04:35:07;5.57;;;3.83;;
11675;SDS011;5894;42.768;23.404;2023-02-02T04:37:34;6.93;;;3.90;;
11675;SDS011;5894;42.768;23.404;2023-02-02T04:40:01;7.40;;;4.23;;
11675;SDS011;5894;42.768;23.404;2023-02-02T04:42:29;12.03;;;6.90;;
11675;SDS011;5894;42.768;23.404;2023-02-02T04:44:59;10.73;;;6.60;;
11675;SDS011;5894;42.768;23.404;2023-02-02T04:47:27;13.77;;;6.93;;
11675;SDS011;5894;42.768;23.404;2023-02-02T04:49:54;18.93;;;12.23;;
11675;SDS011;5894;42.768;23.404;2023-02-02T04:52:21;23.37;;;18.67;;
11675;SDS011;5894;42.768;23.404;2023-02-02T04:54:47;19.27;;;14.33;;
11675;SDS011;5894;42.768;23.404;2023-02-02T04:57:14;17.10;;;10.50;;
11675;SDS011;5894;42.768;23.404;2023-02-02T04:59:41;12.03;;;8.00;;
11675;SDS011;5894;42.768;23.404;2023-02-02T05:02:09;9.10;;;5.80;;
11675;SDS011;5894;42.768;23.404;2023-02-02T05:04:36;10.07;;;6.97;;
11675;SDS011;5894;42.768;23.404;2023-02-02T05:07:03;11.43;;;8.13;;
11675;SDS011;5894;42.768;23.404;2023-02-02T05:09:30;13.57;;;8.20;;
11675;SDS011;5894;42.768;23.404;2023-02-02T05:11:56;12.87;;;7.33;;
11675;SDS011;5894;42.768;23.404;2023-02-02T05:14:23;11.30;;;6.73;;
11675;SDS011;5894;42.768;23.404;2023-02-02T05:16:50;9.07;;;6.10;;
11675;SDS011;5894;42.768;23.404;2023-02-02T05:19:19;10.27;;;5.70;;
11675;SDS011;5894;42.768;23.404;2023-02-02T05:21:45;10.90;;;5.57;;
11675;SDS011;5894;42.768;23.404;2023-02-02T05:24:14;14.20;;;6.70;;
11675;SDS011;5894;42.768;23.404;2023-02-02T05:26:40;14.27;;;5.87;;
11675;SDS011;5894;42.768;23.404;2023-02-02T05:29:07;7.90;;;4.57;;
11675;SDS011;5894;42.768;23.404;2023-02-02T05:31:34;6.03;;;3.93;;
11675;SDS011;5894;42.768;23.404;2023-02-02T05:34:01;6.30;;;4.37;;
11675;SDS011;5894;42.768;23.404;2023-02-02T05:36:29;12.23;;;6.57;;
11675;SDS011;5894;42.768;23.404;2023-02-02T05:38:58;15.60;;;8.57;;
11675;SDS011;5894;42.768;23.404;2023-02-02T05:41:25;18.83;;;11.10;;
11675;SDS011;5894;42.768;23.404;2023-02-02T05:43:51;18.80;;;10.17;;
11675;SDS011;5894;42.768;23.404;2023-02-02T05:46:18;19.83;;;9.90;;
11675;SDS011;5894;42.768;23.404;2023-02-02T05:48:45;23.60;;;10.40;;
11675;SDS011;5894;42.768;23.404;2023-02-02T05:51:14;13.50;;;7.20;;
11675;SDS011;5894;42.768;23.404;2023-02-02T05:53:45;11.57;;;7.20;;
11675;SDS011;5894;42.768;23.404;2023-02-02T05:56:12;11.73;;;7.33;;
11675;SDS011;5894;42.768;23.404;2023-02-02T05:58:39;14.83;;;7.77;;
11675;SDS011;5894;42.768;23.404;2023-02-02T06:01:07;13.17;;;7.80;;
11675;SDS011;5894;42.768;23.404;2023-02-02T06:03:34;11.43;;;6.60;;
11675;SDS011;5894;42.768;23.404;2023-02-02T06:06:01;11.30;;;7.00;;
11675;SDS011;5894;42.768;23.404;2023-02-02T06:08:28;11.97;;;6.10;;
11675;SDS011;5894;42.768;23.404;2023-02-02T06:10:56;6.63;;;5.07;;
11675;SDS011;5894;42.768;23.404;2023-02-02T06:13:23;10.60;;;6.50;;
11675;SDS011;5894;42.768;23.404;2023-02-02T06:15:49;11.13;;;6.30;;
11675;SDS011;5894;42.768;23.404;2023-02-02T06:18:16;9.03;;;6.10;;
11675;SDS011;5894;42.768;23.404;2023-02-02T06:20:43;11.63;;;6.33;;
11675;SDS011;5894;42.768;23.404;2023-02-02T06:23:11;11.93;;;7.33;;
11675;SDS011;5894;42.768;23.404;2023-02-02T06:25:37;13.73;;;7.27;;
11675;SDS011;5894;42.768;23.404;2023-02-02T06:28:06;10.40;;;5.87;;
11675;SDS011;5894;42.768;23.404;2023-02-02T06:30:33;9.57;;;6.10;;
11675;SDS011;5894;42.768;23.404;2023-02-02T06:33:00;12.97;;;7.20;;
11675;SDS011;5894;42.768;23.404;2023-02-02T06:35:27;13.13;;;7.20;;
11675;SDS011;5894;42.768;23.404;2023-02-02T06:37:53;9.83;;;6.20;;
11675;SDS011;5894;42.768;23.404;2023-02-02T06:40:20;8.23;;;5.73;;
11675;SDS011;5894;42.768;23.404;2023-02-02T06:42:53;13.27;;;6.77;;
11675;SDS011;5894;42.768;23.404;2023-02-02T06:45:22;12.30;;;6.07;;
11675;SDS011;5894;42.768;23.404;2023-02-02T06:47:49;10.87;;;5.20;;
11675;SDS011;5894;42.768;23.404;2023-02-02T06:50:16;8.70;;;5.30;;
11675;SDS011;5894;42.768;23.404;2023-02-02T06:52:45;13.30;;;7.80;;
11675;SDS011;5894;42.768;23.404;2023-02-02T06:55:13;10.93;;;6.57;;
11675;SDS011;5894;42.768;23.404;2023-02-02T06:57:41;9.53;;;5.47;;
11675;SDS011;5894;42.768;23.404;2023-02-02T07:00:09;10.07;;;6.10;;
11675;SDS011;5894;42.768;23.404;2023-02-02T07:02:38;10.67;;;6.10;;
11675;SDS011;5894;42.768;23.404;2023-02-02T07:05:05;11.23;;;6.50;;
11675;SDS011;5894;42.768;23.404;2023-02-02T07:07:32;12.67;;;6.13;;
11675;SDS011;5894;42.768;23.404;2023-02-02T07:09:59;11.53;;;7.10;;
11675;SDS011;5894;42.768;23.404;2023-02-02T07:12:26;17.60;;;9.37;;
11675;SDS011;5894;42.768;23.404;2023-02-02T07:14:53;27.70;;;15.17;;
11675;SDS011;5894;42.768;23.404;2023-02-02T07:17:20;21.10;;;11.93;;
11675;SDS011;5894;42.768;23.404;2023-02-02T07:19:48;12.63;;;8.23;;
11675;SDS011;5894;42.768;23.404;2023-02-02T07:22:15;10.73;;;6.07;;
11675;SDS011;5894;42.768;23.404;2023-02-02T07:24:42;12.97;;;6.70;;
11675;SDS011;5894;42.768;23.404;2023-02-02T07:27:08;13.10;;;9.27;;
11675;SDS011;5894;42.768;23.404;2023-02-02T07:29:35;13.70;;;8.20;;
11675;SDS011;5894;42.768;23.404;2023-02-02T07:32:02;14.17;;;7.77;;
11675;SDS011;5894;42.768;23.404;2023-02-02T07:34:29;10.60;;;6.87;;
11675;SDS011;5894;42.768;23.404;2023-02-02T07:36:57;8.73;;;6.43;;
11675;SDS011;5894;42.768;23.404;2023-02-02T07:39:24;10.87;;;6.93;;
11675;SDS011;5894;42.768;23.404;2023-02-02T07:41:50;8.00;;;5.27;;
11675;SDS011;5894;42.768;23.404;2023-02-02T07:44:28;12.33;;;7.23;;
11675;SDS011;5894;42.768;23.404;2023-02-02T07:46:55;12.40;;;7.17;;
11675;SDS011;5894;42.768;23.404;2023-02-02T07:49:22;14.20;;;7.00;;
11675;SDS011;5894;42.768;23.404;2023-02-02T07:51:49;14.40;;;8.00;;
11675;SDS011;5894;42.768;23.404;2023-02-02T07:54:18;9.50;;;5.43;;
11675;SDS011;5894;42.768;23.404;2023-02-02T07:56:45;9.30;;;6.07;;
11675;SDS011;5894;42.768;23.404;2023-02-02T07:59:11;7.80;;;5.40;;
11675;SDS011;5894;42.768;23.404;2023-02-02T08:01:39;7.20;;;4.97;;
11675;SDS011;5894;42.768;23.404;2023-02-02T08:04:06;8.60;;;5.37;;
11675;SDS011;5894;42.768;23.404;2023-02-02T08:06:34;9.00;;;5.63;;
11675;SDS011;5894;42.768;23.404;2023-02-02T08:09:03;6.87;;;4.70;;
11675;SDS011;5894;42.768;23.404;2023-02-02T08:11:33;8.53;;;4.97;;
11675;SDS011;5894;42.768;23.404;2023-02-02T08:14:01;8.23;;;5.30;;
11675;SDS011;5894;42.768;23.404;2023-02-02T08:16:30;11.80;;;5.30;;
11675;SDS011;5894;42.768;23.404;2023-02-02T08:18:57;12.73;;;6.07;;
11675;SDS011;5894;42.768;23.404;2023-02-02T08:21:25;13.33;;;6.83;;
11675;SDS011;5894;42.768;23.404;2023-02-02T08:23:52;10.80;;;5.83;;
11675;SDS011;5894;42.768;23.404;2023-02-02T08:26:19;10.20;;;5.43;;
11675;SDS011;5894;42.768;23.404;2023-02-02T08:28:51;11.50;;;5.33;;
11675;SDS011;5894;42.768;23.404;2023-02-02T08:31:19;9.97;;;4.97;;
11675;SDS011;5894;42.768;23.404;2023-02-02T08:33:48;9.50;;;5.47;;
11675;SDS011;5894;42.768;23.404;2023-02-02T08:36:17;11.73;;;5.93;;
11675;SDS011;5894;42.768;23.404;2023-02-02T08:38:46;6.80;;;4.70;;
11675;SDS011;5894;42.768;23.404;2023-02-02T08:41:14;8.47;;;4.90;;
11675;SDS011;5894;42.768;23.404;2023-02-02T08:43:42;14.50;;;5.10;;
11675;SDS011;5894;42.768;23.404;2023-02-02T08:46:12;8.90;;;5.50;;
11675;SDS011;5894;42.768;23.404;2023-02-02T08:48:40;14.10;;;8.80;;
11675;SDS011;5894;42.768;23.404;2023-02-02T08:51:08;9.63;;;5.63;;
11675;SDS011;5894;42.768;23.404;2023-02-02T08:53:36;11.33;;;5.23;;
11675;SDS011;5894;42.768;23.404;2023-02-02T08:56:03;15.63;;;8.03;;
11675;SDS011;5894;42.768;23.404;2023-02-02T08:58:32;9.43;;;5.73;;
11675;SDS011;5894;42.768;23.404;2023-02-02T09:01:05;11.03;;;5.40;;
11675;SDS011;5894;42.768;23.404;2023-02-02T09:03:34;6.03;;;3.97;;
11675;SDS011;5894;42.768;23.404;2023-02-02T09:06:03;7.87;;;4.13;;
11675;SDS011;5894;42.768;23.404;2023-02-02T09:08:32;5.00;;;3.63;;
11675;SDS011;5894;42.768;23.404;2023-02-02T09:11:03;7.03;;;4.00;;
11675;SDS011;5894;42.768;23.404;2023-02-02T09:13:31;7.80;;;3.63;;
11675;SDS011;5894;42.768;23.404;2023-02-02T09:15:58;4.87;;;2.83;;
11675;SDS011;5894;42.768;23.404;2023-02-02T09:18:26;6.27;;;3.20;;
11675;SDS011;5894;42.768;23.404;2023-02-02T09:20:54;6.43;;;3.47;;
11675;SDS011;5894;42.768;23.404;2023-02-02T09:23:25;13.17;;;4.73;;
11675;SDS011;5894;42.768;23.404;2023-02-02T09:25:52;8.67;;;3.63;;
11675;SDS011;5894;42.768;23.404;2023-02-02T09:28:19;11.03;;;3.63;;
11675;SDS011;5894;42.768;23.404;2023-02-02T09:30:45;11.43;;;4.27;;
11675;SDS011;5894;42.768;23.404;2023-02-02T09:33:12;6.93;;;3.70;;
11675;SDS011;5894;42.768;23.404;2023-02-02T09:35:39;7.83;;;3.60;;
11675;SDS011;5894;42.768;23.404;2023-02-02T09:38:07;10.10;;;4.40;;
11675;SDS011;5894;42.768;23.404;2023-02-02T09:40:34;8.17;;;4.03;;
11675;SDS011;5894;42.768;23.404;2023-02-02T09:43:02;7.87;;;3.93;;
11675;SDS011;5894;42.768;23.404;2023-02-02T09:45:42;6.87;;;4.03;;
11675;SDS011;5894;42.768;23.404;2023-02-02T09:48:19;7.20;;;3.87;;
11675;SDS011;5894;42.768;23.404;2023-02-02T09:50:55;10.17;;;3.27;;
11675;SDS011;5894;42.768;23.404;2023-02-02T09:53:29;5.63;;;2.67;;
11675;SDS011;5894;42.768;23.404;2023-02-02T09:56:04;7.17;;;2.50;;
11675;SDS011;5894;42.768;23.404;2023-02-02T09:58:35;7.73;;;2.93;;
11675;SDS011;5894;42.768;23.404;2023-02-02T10:01:07;6.73;;;3.20;;
11675;SDS011;5894;42.768;23.404;2023-02-02T10:03:39;7.40;;;3.30;;
11675;SDS011;5894;42.768;23.404;2023-02-02T10:06:23;10.17;;;3.47;;
11675;SDS011;5894;42.768;23.404;2023-02-02T10:08:58;8.30;;;3.60;;
11675;SDS011;5894;42.768;23.404;2023-02-02T10:11:35;7.87;;;3.70;;
11675;SDS011;5894;42.768;23.404;2023-02-02T10:14:08;10.20;;;3.70;;
11675;SDS011;5894;42.768;23.404;2023-02-02T10:16:50;7.90;;;4.07;;
11675;SDS011;5894;42.768;23.404;2023-02-02T10:19:19;9.97;;;4.07;;
11675;SDS011;5894;42.768;23.404;2023-02-02T10:21:53;8.77;;;3.90;;
11675;SDS011;5894;42.768;23.404;2023-02-02T10:24:31;6.70;;;3.17;;
11675;SDS011;5894;42.768;23.404;2023-02-02T10:27:01;15.63;;;3.27;;
11675;SDS011;5894;42.768;23.404;2023-02-02T10:29:31;6.93;;;2.50;;
11675;SDS011;5894;42.768;23.404;2023-02-02T10:32:13;5.43;;;2.47;;
11675;SDS011;5894;42.768;23.404;2023-02-02T10:34:52;4.50;;;2.37;;
11675;SDS011;5894;42.768;23.404;2023-02-02T10:37:27;12.33;;;6.43;;
11675;SDS011;5894;42.768;23.404;2023-02-02T10:40:16;4.70;;;2.70;;
11675;SDS011;5894;42.768;23.404;2023-02-02T10:42:54;14.00;;;4.27;;
11675;SDS011;5894;42.768;23.404;2023-02-02T10:45:55;7.20;;;3.37;;
11675;SDS011;5894;42.768;23.404;2023-02-02T10:48:25;3.97;;;3.00;;
11675;SDS011;5894;42.768;23.404;2023-02-02T10:50:57;5.03;;;2.30;;
11675;SDS011;5894;42.768;23.404;2023-02-02T10:53:26;4.47;;;2.47;;
11675;SDS011;5894;42.768;23.404;2023-02-02T10:55:57;4.33;;;2.40;;
11675;SDS011;5894;42.768;23.404;2023-02-02T10:58:29;7.67;;;2.40;;
11675;SDS011;5894;42.768;23.404;2023-02-02T11:01:01;4.63;;;2.30;;
11675;SDS011;5894;42.768;23.404;2023-02-02T11:03:32;6.67;;;2.30;;
11675;SDS011;5894;42.768;23.404;2023-02-02T11:06:00;5.80;;;2.10;;
11675;SDS011;5894;42.768;23.404;2023-02-02T11:08:46;5.13;;;2.50;;
11675;SDS011;5894;42.768;23.404;2023-02-02T11:11:22;4.03;;;2.00;;
11675;SDS011;5894;42.768;23.404;2023-02-02T11:13:52;3.00;;;1.93;;
11675;SDS011;5894;42.768;23.404;2023-02-02T11:16:24;5.57;;;2.63;;
11675;SDS011;5894;42.768;23.404;2023-02-02T11:18:53;4.10;;;2.13;;
11675;SDS011;5894;42.768;23.404;2023-02-02T11:21:22;4.93;;;2.80;;
11675;SDS011;5894;42.768;23.404;2023-02-02T11:23:52;3.20;;;2.63;;
11675;SDS011;5894;42.768;23.404;2023-02-02T11:26:20;10.07;;;2.87;;
11675;SDS011;5894;42.768;23.404;2023-02-02T11:28:49;5.63;;;2.60;;
11675;SDS011;5894;42.768;23.404;2023-02-02T11:31:29;3.03;;;2.10;;
11675;SDS011;5894;42.768;23.404;2023-02-02T11:34:12;4.47;;;2.17;;
11675;SDS011;5894;42.768;23.404;2023-02-02T11:39:28;5.93;;;2.53;;
11675;SDS011;5894;42.768;23.404;2023-02-02T11:42:03;6.07;;;3.00;;
11675;SDS011;5894;42.768;23.404;2023-02-02T11:44:32;5.40;;;3.03;;
11675;SDS011;5894;42.768;23.404;2023-02-02T11:47:01;10.43;;;4.17;;
11675;SDS011;5894;42.768;23.404;2023-02-02T11:49:30;7.47;;;3.40;;
11675;SDS011;5894;42.768;23.404;2023-02-02T11:52:03;10.30;;;3.30;;
11675;SDS011;5894;42.768;23.404;2023-02-02T11:54:34;10.33;;;4.40;;
11675;SDS011;5894;42.768;23.404;2023-02-02T11:57:06;9.93;;;4.10;;
11675;SDS011;5894;42.768;23.404;2023-02-02T11:59:35;12.83;;;5.13;;
11675;SDS011;5894;42.768;23.404;2023-02-02T12:02:18;8.67;;;5.03;;
11675;SDS011;5894;42.768;23.404;2023-02-02T12:04:49;7.53;;;5.00;;
11675;SDS011;5894;42.768;23.404;2023-02-02T12:07:21;7.70;;;3.63;;
11675;SDS011;5894;42.768;23.404;2023-02-02T12:09:50;6.23;;;3.63;;
11675;SDS011;5894;42.768;23.404;2023-02-02T12:12:24;6.13;;;2.93;;
11675;SDS011;5894;42.768;23.404;2023-02-02T12:15:07;6.53;;;3.67;;
11675;SDS011;5894;42.768;23.404;2023-02-02T12:17:49;8.67;;;4.77;;
11675;SDS011;5894;42.768;23.404;2023-02-02T12:20:21;11.03;;;3.57;;
11675;SDS011;5894;42.768;23.404;2023-02-02T12:23:03;5.60;;;3.27;;
11675;SDS011;5894;42.768;23.404;2023-02-02T12:26:05;5.53;;;3.00;;
11675;SDS011;5894;42.768;23.404;2023-02-02T12:28:48;7.63;;;3.00;;
11675;SDS011;5894;42.768;23.404;2023-02-02T12:31:36;8.67;;;3.57;;
11675;SDS011;5894;42.768;23.404;2023-02-02T12:34:14;8.23;;;3.63;;
11675;SDS011;5894;42.768;23.404;2023-02-02T12:36:49;5.60;;;2.93;;
11675;SDS011;5894;42.768;23.404;2023-02-02T12:39:30;3.77;;;2.50;;
11675;SDS011;5894;42.768;23.404;2023-02-02T12:42:13;9.23;;;2.70;;
11675;SDS011;5894;42.768;23.404;2023-02-02T12:45:01;10.83;;;6.17;;
11675;SDS011;5894;42.768;23.404;2023-02-02T12:47:51;7.20;;;3.60;;
11675;SDS011;5894;42.768;23.404;2023-02-02T12:50:29;11.53;;;6.07;;
11675;SDS011;5894;42.768;23.404;2023-02-02T12:53:05;8.23;;;2.63;;
11675;SDS011;5894;42.768;23.404;2023-02-02T12:55:46;3.70;;;2.80;;
11675;SDS011;5894;42.768;23.404;2023-02-02T12:58:20;4.80;;;2.73;;
11675;SDS011;5894;42.768;23.404;2023-02-02T13:01:00;2.93;;;1.90;;
11675;SDS011;5894;42.768;23.404;2023-02-02T13:03:40;3.37;;;2.40;;
11675;SDS011;5894;42.768;23.404;2023-02-02T13:06:22;3.73;;;1.70;;
11675;SDS011;5894;42.768;23.404;2023-02-02T13:09:07;2.43;;;2.07;;
11675;SDS011;5894;42.768;23.404;2023-02-02T13:11:38;2.20;;;1.93;;
11675;SDS011;5894;42.768;23.404;2023-02-02T13:14:10;2.90;;;1.80;;
11675;SDS011;5894;42.768;23.404;2023-02-02T13:16:43;2.77;;;2.10;;
11675;SDS011;5894;42.768;23.404;2023-02-02T13:19:14;4.50;;;2.43;;
11675;SDS011;5894;42.768;23.404;2023-02-02T13:21:51;10.63;;;2.87;;
11675;SDS011;5894;42.768;23.404;2023-02-02T13:24:24;2.90;;;2.10;;
11675;SDS011;5894;42.768;23.404;2023-02-02T13:26:55;2.73;;;1.93;;
11675;SDS011;5894;42.768;23.404;2023-02-02T13:29:25;4.83;;;2.23;;
11675;SDS011;5894;42.768;23.404;2023-02-02T13:32:00;2.87;;;2.33;;
11675;SDS011;5894;42.768;23.404;2023-02-02T13:34:34;4.33;;;2.37;;
11675;SDS011;5894;42.768;23.404;2023-02-02T13:37:09;4.73;;;2.70;;
11675;SDS011;5894;42.768;23.404;2023-02-02T13:39:43;3.80;;;2.20;;
11675;SDS011;5894;42.768;23.404;2023-02-02T13:42:19;3.33;;;2.53;;
11675;SDS011;5894;42.768;23.404;2023-02-02T13:44:57;6.50;;;3.03;;
11675;SDS011;5894;42.768;23.404;2023-02-02T13:47:32;9.73;;;2.37;;
11675;SDS011;5894;42.768;23.404;2023-02-02T13:50:03;3.30;;;2.53;;
11675;SDS011;5894;42.768;23.404;2023-02-02T13:52:41;5.03;;;3.43;;
11675;SDS011;5894;42.768;23.404;2023-02-02T13:55:27;5.17;;;3.40;;
11675;SDS011;5894;42.768;23.404;2023-02-02T14:01:14;4.50;;;3.07;;
11675;SDS011;5894;42.768;23.404;2023-02-02T14:03:43;4.90;;;2.90;;
11675;SDS011;5894;42.768;23.404;2023-02-02T14:06:18;2.87;;;2.33;;
11675;SDS011;5894;42.768;23.404;2023-02-02T14:08:47;8.63;;;2.57;;
11675;SDS011;5894;42.768;23.404;2023-02-02T14:11:20;4.97;;;2.80;;
11675;SDS011;5894;42.768;23.404;2023-02-02T14:13:50;2.97;;;2.00;;
11675;SDS011;5894;42.768;23.404;2023-02-02T14:16:46;4.10;;;2.13;;
11675;SDS011;5894;42.768;23.404;2023-02-02T14:19:16;4.70;;;2.60;;
11675;SDS011;5894;42.768;23.404;2023-02-02T14:22:16;4.73;;;2.70;;
11675;SDS011;5894;42.768;23.404;2023-02-02T14:24:58;5.27;;;2.20;;
11675;SDS011;5894;42.768;23.404;2023-02-02T14:30:31;3.23;;;2.20;;
11675;SDS011;5894;42.768;23.404;2023-02-02T14:36:14;4.03;;;2.10;;
11675;SDS011;5894;42.768;23.404;2023-02-02T14:39:01;4.70;;;2.80;;
11675;SDS011;5894;42.768;23.404;2023-02-02T14:41:44;5.93;;;3.50;;
11675;SDS011;5894;42.768;23.404;2023-02-02T14:47:45;6.93;;;4.17;;
11675;SDS011;5894;42.768;23.404;2023-02-02T14:50:15;6.70;;;3.77;;
11675;SDS011;5894;42.768;23.404;2023-02-02T14:52:54;5.07;;;3.60;;
11675;SDS011;5894;42.768;23.404;2023-02-02T14:55:26;5.63;;;3.30;;
11675;SDS011;5894;42.768;23.404;2023-02-02T14:57:54;4.03;;;2.47;;
11675;SDS011;5894;42.768;23.404;2023-02-02T15:00:25;3.90;;;2.80;;
11675;SDS011;5894;42.768;23.404;2023-02-02T15:03:00;13.73;;;6.93;;
11675;SDS011;5894;42.768;23.404;2023-02-02T15:06:03;7.97;;;4.80;;
11675;SDS011;5894;42.768;23.404;2023-02-02T15:08:33;9.00;;;5.33;;
11675;SDS011;5894;42.768;23.404;2023-02-02T15:11:03;5.50;;;3.93;;
11675;SDS011;5894;42.768;23.404;2023-02-02T15:13:45;7.33;;;4.30;;
11675;SDS011;5894;42.768;23.404;2023-02-02T15:16:20;3.83;;;2.33;;
11675;SDS011;5894;42.768;23.404;2023-02-02T15:18:54;1.90;;;1.60;;
11675;SDS011;5894;42.768;23.404;2023-02-02T15:21:30;1.77;;;1.60;;
11675;SDS011;5894;42.768;23.404;2023-02-02T15:24:01;2.30;;;1.77;;
11675;SDS011;5894;42.768;23.404;2023-02-02T15:26:31;1.33;;;1.20;;
11675;SDS011;5894;42.768;23.404;2023-02-02T15:29:04;2.27;;;1.60;;